createdAt,value
2023-03-26T00:01:46.536Z,6.24
2023-03-26T00:04:14.596Z,6.21
2023-03-26T00:06:42.586Z,6.22
2023-03-26T00:09:13.594Z,6.23
2023-03-26T00:11:42.031Z,6.24
2023-03-26T00:14:14.129Z,6.23
2023-03-26T00:16:44.671Z,6.18
2023-03-26T00:19:12.916Z,6.20
2023-03-26T00:21:41.677Z,6.21
2023-03-26T00:24:15.369Z,6.20
2023-03-26T00:26:44.779Z,6.20
2023-03-26T00:29:14.083Z,6.19
2023-03-26T00:31:46.718Z,6.21
2023-03-26T00:34:18.759Z,6.21
2023-03-26T00:36:47.266Z,6.20
2023-03-26T00:39:15.499Z,6.23
2023-03-26T00:41:43.889Z,6.20
2023-03-26T00:44:11.955Z,6.23
2023-03-26T00:46:40.014Z,6.23
2023-03-26T00:49:11.188Z,6.23
2023-03-26T00:51:39.516Z,6.24
2023-03-26T00:54:08.355Z,6.26
2023-03-26T00:56:36.372Z,6.25
2023-03-26T00:59:04.548Z,6.22
2023-03-26T01:01:32.587Z,6.22
2023-03-26T01:04:27.564Z,6.20
2023-03-26T01:07:05.944Z,6.15
2023-03-26T01:09:43.012Z,6.16
2023-03-26T01:12:18.619Z,6.14
2023-03-26T01:14:53.712Z,6.12
2023-03-26T01:17:22.779Z,6.11
2023-03-26T01:19:53.524Z,6.11
2023-03-26T01:22:24.687Z,6.08
2023-03-26T01:24:54.101Z,6.09
2023-03-26T01:27:41.178Z,6.08
2023-03-26T01:30:21.070Z,6.06
2023-03-26T01:33:03.868Z,6.06
2023-03-26T01:35:34.754Z,6.06
2023-03-26T01:38:02.602Z,6.05
2023-03-26T01:41:01.262Z,6.06
2023-03-26T01:43:34.269Z,6.05
2023-03-26T01:46:05.660Z,6.05
2023-03-26T01:48:39.915Z,6.04
2023-03-26T01:51:08.567Z,6.02
2023-03-26T01:53:41.317Z,6.01
2023-03-26T01:56:11.043Z,6.02
2023-03-26T01:58:41.640Z,6.03
2023-03-26T02:01:30.433Z,6.05
2023-03-26T02:04:03.082Z,6.08
2023-03-26T02:07:11.789Z,6.10
2023-03-26T02:09:45.908Z,6.07
2023-03-26T02:12:14.989Z,6.01
2023-03-26T02:14:43.745Z,5.99
2023-03-26T02:17:32.820Z,5.96
2023-03-26T02:20:07.153Z,5.98
2023-03-26T02:22:41.166Z,5.97
2023-03-26T02:25:12.942Z,5.93
2023-03-26T02:27:40.872Z,5.89
2023-03-26T02:30:18.371Z,5.86
2023-03-26T02:32:52.468Z,5.83
2023-03-26T02:35:22.682Z,5.86
2023-03-26T02:37:55.640Z,5.85
2023-03-26T02:40:23.749Z,5.83
2023-03-26T02:42:52.668Z,5.89
2023-03-26T02:45:20.693Z,5.88
2023-03-26T02:47:51.425Z,5.95
2023-03-26T02:50:43.164Z,6.00
2023-03-26T02:53:31.003Z,6.04
2023-03-26T02:56:17.263Z,6.05
2023-03-26T02:58:58.837Z,6.08
2023-03-26T03:01:26.799Z,6.13
2023-03-26T03:03:56.069Z,6.12
2023-03-26T03:06:38.524Z,6.18
2023-03-26T03:09:09.486Z,6.16
2023-03-26T03:11:38.903Z,6.16
2023-03-26T03:14:07.116Z,6.17
2023-03-26T03:16:36.056Z,6.15
2023-03-26T03:19:07.379Z,6.14
2023-03-26T03:21:40.373Z,6.15
2023-03-26T03:24:10.193Z,6.14
2023-03-26T03:26:45.985Z,6.14
2023-03-26T03:29:26.712Z,6.16
2023-03-26T03:31:55.905Z,6.18
2023-03-26T03:34:42.597Z,6.15
2023-03-26T03:37:10.950Z,6.13
2023-03-26T03:39:53.921Z,6.15
2023-03-26T03:42:23.608Z,6.11
2023-03-26T03:44:55.981Z,6.16
2023-03-26T03:47:42.516Z,6.17
2023-03-26T03:50:11.412Z,6.19
2023-03-26T03:52:46.511Z,6.17
2023-03-26T03:55:17.469Z,6.17
2023-03-26T03:57:54.470Z,6.19
2023-03-26T04:00:24.828Z,6.21
2023-03-26T04:03:15.834Z,6.20
2023-03-26T04:05:49.576Z,6.25
2023-03-26T04:08:18.466Z,6.23
2023-03-26T04:10:49.575Z,6.27
2023-03-26T04:13:17.791Z,6.18
2023-03-26T04:16:21.342Z,6.11
2023-03-26T04:18:50.009Z,6.07
2023-03-26T04:21:19.423Z,6.06
2023-03-26T04:23:47.696Z,6.05
2023-03-26T04:26:44.779Z,6.04
2023-03-26T04:29:17.204Z,6.04
2023-03-26T04:31:47.232Z,6.02
2023-03-26T04:34:24.491Z,6.03
2023-03-26T04:37:05.846Z,6.03
2023-03-26T04:39:40.378Z,6.03
2023-03-26T04:42:26.731Z,5.98
2023-03-26T04:45:06.777Z,5.99
2023-03-26T04:47:37.227Z,5.98
2023-03-26T04:50:08.317Z,5.98
2023-03-26T04:52:38.427Z,6.00
2023-03-26T04:56:05.717Z,6.03
2023-03-26T04:59:04.569Z,6.12
2023-03-26T05:01:38.005Z,6.11
2023-03-26T05:04:06.862Z,6.20
2023-03-26T05:06:34.760Z,6.22
2023-03-26T05:09:10.785Z,6.24
2023-03-26T05:11:58.741Z,6.29
2023-03-26T05:14:26.720Z,6.31
2023-03-26T05:16:55.045Z,6.32
2023-03-26T05:19:22.878Z,6.33
2023-03-26T05:21:50.823Z,6.35
2023-03-26T05:24:19.829Z,6.34
2023-03-26T05:26:47.952Z,6.37
2023-03-26T05:29:17.473Z,6.34
2023-03-26T05:31:49.320Z,6.41
2023-03-26T05:34:17.217Z,6.41
2023-03-26T05:36:44.958Z,6.44
2023-03-26T05:39:38.560Z,6.49
2023-03-26T05:42:41.928Z,6.49
2023-03-26T05:45:31.106Z,6.51
2023-03-26T05:48:02.295Z,6.52
2023-03-26T05:50:30.456Z,6.51
2023-03-26T05:53:01.002Z,6.50
2023-03-26T05:55:42.528Z,6.53
2023-03-26T05:58:32.633Z,6.52
2023-03-26T06:01:19.789Z,6.51
2023-03-26T06:04:16.099Z,6.55
2023-03-26T06:06:58.773Z,6.54
2023-03-26T06:09:26.830Z,6.56
2023-03-26T06:11:54.695Z,6.56
2023-03-26T06:14:22.864Z,6.55
2023-03-26T06:17:10.287Z,6.55
2023-03-26T06:20:14.737Z,6.53
2023-03-26T06:22:46.431Z,6.48
2023-03-26T06:25:47.056Z,6.54
2023-03-26T06:30:01.195Z,6.54
2023-03-26T06:33:24.658Z,6.31
2023-03-26T07:00:43.017Z,6.25
2023-03-26T07:04:00.008Z,6.44
2023-03-26T07:06:51.632Z,6.39
2023-03-26T07:09:38.477Z,6.18
2023-03-26T07:12:34.884Z,6.29
2023-03-26T07:15:21.319Z,6.29
2023-03-26T07:18:13.981Z,6.19
2023-03-26T07:20:48.278Z,6.06
2023-03-26T07:23:20.942Z,6.15
2023-03-26T07:25:59.232Z,6.12
2023-03-26T07:29:04.591Z,5.94
2023-03-26T07:32:22.905Z,6.14
2023-03-26T07:35:25.278Z,6.07
2023-03-26T07:38:38.896Z,6.15
2023-03-26T07:41:52.866Z,6.07
2023-03-26T07:44:51.359Z,6.08
2023-03-26T07:47:58.042Z,5.98
2023-03-26T07:50:45.183Z,6.08
2023-03-26T07:53:26.726Z,6.12
2023-03-26T07:56:12.320Z,6.17
2023-03-26T07:59:21.380Z,6.15
2023-03-26T08:02:43.027Z,5.87
2023-03-26T08:05:57.326Z,5.96
2023-03-26T08:09:28.595Z,6.08
2023-03-26T08:12:51.362Z,6.14
2023-03-26T08:15:44.222Z,6.17
2023-03-26T08:18:35.546Z,6.15
2023-03-26T08:21:14.350Z,6.14
2023-03-26T08:23:55.234Z,6.01
2023-03-26T08:26:40.085Z,6.13
2023-03-26T08:29:16.647Z,6.18
2023-03-26T08:31:45.309Z,6.14
2023-03-26T08:34:14.171Z,6.22
2023-03-26T08:36:45.176Z,6.01
2023-03-26T08:39:13.282Z,6.07
2023-03-26T08:42:19.599Z,6.09
2023-03-26T08:44:56.021Z,6.06
2023-03-26T08:47:29.693Z,6.20
2023-03-26T08:50:33.234Z,6.23
2023-03-26T08:53:28.889Z,6.27
2023-03-26T08:56:25.219Z,6.33
2023-03-26T08:59:14.578Z,6.38
2023-03-26T09:01:48.043Z,6.38
2023-03-26T09:04:58.512Z,6.39
2023-03-26T09:07:43.370Z,6.31
2023-03-26T09:10:23.571Z,6.28
2023-03-26T09:13:13.608Z,6.39
2023-03-26T09:16:19.319Z,6.18
2023-03-26T09:19:04.475Z,6.41
2023-03-26T09:22:13.242Z,6.37
2023-03-26T09:24:56.482Z,6.31
2023-03-26T09:27:51.297Z,6.38
2023-03-26T09:30:31.723Z,6.43
2023-03-26T09:33:29.403Z,6.21
2023-03-26T09:36:09.207Z,6.53
2023-03-26T09:38:55.788Z,6.47
2023-03-26T09:42:23.886Z,6.60
2023-03-26T09:45:22.802Z,6.67
2023-03-26T09:48:07.031Z,6.71
2023-03-26T09:51:17.060Z,6.78
2023-03-26T09:53:58.397Z,6.83
2023-03-26T09:56:58.167Z,6.84
2023-03-26T09:59:41.364Z,6.76
2023-03-26T10:02:45.808Z,6.73
2023-03-26T10:05:24.982Z,6.78
2023-03-26T10:08:25.191Z,6.77
2023-03-26T10:11:23.780Z,6.79
2023-03-26T10:14:09.332Z,6.51
2023-03-26T10:17:00.167Z,6.81
2023-03-26T10:20:13.331Z,6.72
2023-03-26T10:22:44.198Z,6.86
2023-03-26T10:25:19.310Z,6.91
2023-03-26T10:27:59.658Z,6.95
2023-03-26T10:31:08.674Z,7.01
2023-03-26T10:33:58.676Z,6.98
2023-03-26T10:37:18.965Z,7.01
2023-03-26T10:40:27.663Z,7.10
2023-03-26T10:43:30.031Z,7.04
2023-03-26T10:46:04.360Z,7.17
2023-03-26T10:49:09.360Z,7.19
2023-03-26T10:52:04.246Z,7.15
2023-03-26T10:54:55.917Z,7.08
2023-03-26T10:58:00.295Z,7.20
2023-03-26T11:00:56.788Z,7.22
2023-03-26T11:03:41.883Z,7.21
2023-03-26T11:06:51.320Z,7.18
2023-03-26T11:09:37.143Z,7.19
2023-03-26T11:12:26.569Z,7.06
2023-03-26T11:15:03.081Z,7.22
2023-03-26T11:17:52.429Z,7.25
2023-03-26T11:20:23.072Z,7.26
2023-03-26T11:23:04.154Z,7.12
2023-03-26T11:25:40.928Z,7.21
2023-03-26T11:28:24.681Z,7.15
2023-03-26T11:31:04.901Z,7.16
2023-03-26T11:33:37.105Z,7.18
2023-03-26T11:36:10.955Z,7.12
2023-03-26T11:38:42.172Z,7.11
2023-03-26T11:41:23.336Z,7.18
2023-03-26T11:44:22.028Z,7.24
2023-03-26T11:46:56.307Z,7.18
2023-03-26T11:49:26.567Z,7.10
2023-03-26T11:51:54.456Z,7.09
2023-03-26T11:54:22.649Z,7.12
2023-03-26T11:57:05.935Z,7.26
2023-03-26T11:59:55.508Z,7.16
2023-03-26T12:02:34.383Z,7.25
2023-03-26T12:05:14.379Z,7.25
2023-03-26T12:07:59.312Z,7.20
2023-03-26T12:10:34.922Z,7.25
2023-03-26T12:13:29.815Z,7.25
2023-03-26T12:15:59.559Z,7.25
2023-03-26T12:18:28.678Z,7.28
2023-03-26T12:21:19.321Z,7.27
2023-03-26T12:23:57.801Z,7.27
2023-03-26T12:26:34.654Z,7.25
2023-03-26T12:29:14.546Z,7.21
2023-03-26T12:31:51.531Z,7.16
2023-03-26T12:34:21.185Z,7.18
2023-03-26T12:36:52.384Z,7.13
2023-03-26T12:40:10.039Z,7.17
2023-03-26T12:44:50.230Z,7.15
2023-03-26T12:45:40.778Z,7.10
2023-03-26T12:48:13.504Z,7.02
2023-03-26T12:51:18.910Z,7.05
2023-03-26T12:54:03.782Z,7.10
2023-03-26T12:56:42.035Z,7.09
2023-03-26T12:59:42.404Z,7.11
2023-03-26T13:02:32.793Z,7.10
2023-03-26T13:05:17.997Z,7.02
2023-03-26T13:08:08.000Z,6.99
2023-03-26T13:10:54.786Z,7.02
2023-03-26T13:13:22.729Z,7.02
2023-03-26T13:15:58.676Z,6.92
2023-03-26T13:18:45.725Z,6.99
2023-03-26T13:21:28.748Z,6.99
2023-03-26T13:24:25.900Z,6.96
2023-03-26T13:27:16.922Z,6.93
2023-03-26T13:30:31.401Z,6.78
2023-03-26T13:33:14.540Z,6.75
2023-03-26T13:36:23.248Z,6.86
2023-03-26T13:39:03.699Z,6.84
2023-03-26T13:41:51.961Z,6.83
2023-03-26T13:44:32.987Z,6.81
2023-03-26T13:47:11.748Z,6.72
2023-03-26T13:50:00.084Z,6.77
2023-03-26T13:52:56.415Z,6.73
2023-03-26T13:56:02.739Z,6.58
2023-03-26T13:58:44.081Z,6.62
2023-03-26T14:01:18.311Z,6.62
2023-03-26T14:03:56.365Z,6.66
2023-03-26T14:06:42.375Z,6.63
2023-03-26T14:09:23.167Z,6.53
2023-03-26T14:11:56.849Z,6.55
2023-03-26T14:14:54.965Z,6.51
2023-03-26T14:17:31.562Z,6.52
2023-03-26T14:20:20.712Z,6.51
2023-03-26T14:23:13.888Z,6.52
2023-03-26T14:25:56.338Z,6.49
2023-03-26T14:28:33.208Z,6.49
2023-03-26T14:31:03.818Z,6.48
2023-03-26T14:33:52.988Z,6.46
2023-03-26T14:36:20.884Z,6.47
2023-03-26T14:38:57.674Z,6.48
2023-03-26T14:41:30.309Z,6.48
2023-03-26T14:44:04.012Z,6.51
2023-03-26T14:46:49.403Z,6.50
2023-03-26T14:49:30.189Z,6.49
2023-03-26T14:52:16.429Z,6.48
2023-03-26T14:54:45.752Z,6.47
2023-03-26T14:57:33.164Z,6.50
2023-03-26T15:00:15.833Z,6.45
2023-03-26T15:03:07.645Z,6.49
2023-03-26T15:06:04.273Z,6.46
2023-03-26T15:09:09.566Z,6.49
2023-03-26T15:12:12.110Z,6.47
2023-03-26T15:14:40.883Z,6.46
2023-03-26T15:17:34.876Z,6.42
2023-03-26T15:20:21.384Z,6.44
2023-03-26T15:23:04.196Z,6.42
2023-03-26T15:26:16.725Z,6.41
2023-03-26T15:29:11.816Z,6.41
2023-03-26T15:31:55.531Z,6.34
2023-03-26T15:34:42.486Z,6.34
2023-03-26T15:37:52.780Z,6.31
2023-03-26T15:40:36.528Z,6.27
2023-03-26T15:43:15.278Z,6.27
2023-03-26T15:45:54.155Z,6.24
2023-03-26T15:48:46.382Z,6.25
2023-03-26T15:51:32.365Z,6.23
2023-03-26T15:54:29.483Z,6.23
2023-03-26T15:57:16.893Z,6.19
2023-03-26T15:59:52.306Z,6.24
2023-03-26T16:02:41.655Z,6.24
2023-03-26T16:08:39.797Z,6.19
2023-03-26T16:11:12.789Z,6.16
2023-03-26T16:13:45.227Z,6.17
2023-03-26T16:16:16.208Z,6.17
2023-03-26T16:18:47.024Z,6.11
2023-03-26T16:21:30.587Z,6.14
2023-03-26T16:24:03.396Z,6.13
2023-03-26T16:26:53.081Z,6.12
2023-03-26T16:29:24.017Z,6.11
2023-03-26T16:32:10.348Z,6.11
2023-03-26T16:34:53.020Z,6.11
2023-03-26T16:37:39.827Z,6.12
2023-03-26T16:40:16.897Z,6.14
2023-03-26T16:43:01.661Z,6.12
2023-03-26T16:45:40.769Z,6.10
2023-03-26T16:48:23.996Z,6.06
2023-03-26T16:51:11.469Z,6.07
2023-03-26T16:54:09.646Z,6.07
2023-03-26T16:56:48.425Z,6.01
2023-03-26T16:59:36.487Z,6.04
2023-03-26T17:02:13.895Z,5.98
2023-03-26T17:04:58.497Z,6.05
2023-03-26T17:08:36.367Z,5.90
2023-03-26T17:11:40.366Z,6.04
2023-03-26T17:14:42.306Z,5.95
2023-03-26T17:17:28.842Z,6.04
2023-03-26T17:20:33.133Z,6.04
2023-03-26T17:23:22.656Z,5.97
2023-03-26T17:25:57.924Z,5.88
2023-03-26T17:28:52.186Z,5.98
2023-03-26T17:31:41.684Z,5.99
2023-03-26T17:34:34.413Z,5.99
2023-03-26T17:37:11.834Z,6.01
2023-03-26T17:39:39.920Z,6.01
2023-03-26T17:42:27.964Z,6.01
2023-03-26T17:45:02.437Z,6.01
2023-03-26T17:47:54.099Z,6.05
2023-03-26T17:50:26.701Z,6.02
2023-03-26T17:52:58.993Z,6.03
2023-03-26T17:55:31.414Z,6.02
2023-03-26T17:58:00.819Z,6.02
2023-03-26T18:00:42.546Z,5.97
2023-03-26T18:03:37.156Z,6.04
2023-03-26T18:06:20.001Z,6.06
2023-03-26T18:09:06.568Z,5.99
2023-03-26T18:12:01.213Z,5.99
2023-03-26T18:14:52.031Z,5.91
2023-03-26T18:17:24.238Z,5.98
2023-03-26T18:19:54.537Z,6.02
2023-03-26T18:22:30.727Z,6.02
2023-03-26T18:25:00.750Z,6.02
2023-03-26T18:27:36.785Z,5.97
2023-03-26T18:30:19.732Z,6.01
2023-03-26T18:33:01.352Z,6.02
2023-03-26T18:35:55.655Z,6.00
2023-03-26T18:38:35.888Z,5.96
2023-03-26T18:41:08.200Z,6.00
2023-03-26T18:43:44.363Z,5.99
2023-03-26T18:46:14.083Z,6.01
2023-03-26T18:48:51.255Z,6.05
2023-03-26T18:51:23.347Z,5.95
2023-03-26T18:53:58.965Z,5.88
2023-03-26T18:56:49.288Z,6.03
2023-03-26T18:59:44.394Z,5.81
2023-03-26T19:02:21.230Z,5.96
2023-03-26T19:04:54.719Z,5.86
2023-03-26T19:07:25.751Z,5.96
2023-03-26T19:09:56.815Z,5.85
2023-03-26T19:12:35.347Z,6.08
2023-03-26T19:15:16.892Z,6.03
2023-03-26T19:17:46.686Z,6.05
2023-03-26T19:20:29.104Z,6.03
2023-03-26T19:22:57.427Z,6.01
2023-03-26T19:25:40.358Z,6.00
2023-03-26T19:28:25.187Z,6.05
2023-03-26T19:30:58.912Z,6.08
2023-03-26T19:33:34.174Z,6.06
2023-03-26T19:36:15.883Z,6.10
2023-03-26T19:38:55.224Z,6.02
2023-03-26T19:41:27.108Z,5.98
2023-03-26T19:44:14.113Z,6.03
2023-03-26T19:46:53.247Z,5.98
2023-03-26T19:49:36.082Z,6.04
2023-03-26T19:52:19.212Z,6.03
2023-03-26T19:55:00.205Z,6.05
2023-03-26T19:57:30.097Z,5.99
2023-03-26T19:59:58.567Z,5.99
2023-03-26T20:02:29.088Z,5.91
2023-03-26T20:05:04.856Z,5.84
2023-03-26T20:10:27.014Z,5.97
2023-03-26T20:12:54.910Z,5.99
2023-03-26T20:15:27.188Z,6.01
2023-03-26T20:17:59.093Z,5.94
2023-03-26T20:20:30.665Z,6.02
2023-03-26T20:22:58.439Z,6.04
2023-03-26T20:25:31.134Z,6.06
2023-03-26T20:27:59.471Z,6.02
2023-03-26T20:30:37.313Z,5.98
2023-03-26T20:33:11.934Z,5.94
2023-03-26T20:35:41.711Z,5.92
2023-03-26T20:38:10.368Z,5.89
2023-03-26T20:40:38.703Z,5.91
2023-03-26T20:43:14.415Z,5.84
2023-03-26T20:45:42.692Z,5.82
2023-03-26T20:48:10.623Z,5.76
2023-03-26T20:50:50.259Z,5.78
2023-03-26T20:53:20.456Z,5.70
2023-03-26T20:55:53.608Z,5.64
2023-03-26T20:58:31.667Z,5.59
2023-03-26T21:01:01.155Z,5.48
2023-03-26T21:03:29.132Z,5.48
2023-03-26T21:06:03.623Z,5.41
2023-03-26T21:08:34.556Z,5.39
2023-03-26T21:11:05.542Z,5.33
2023-03-26T21:13:43.878Z,5.26
2023-03-26T21:16:13.278Z,5.20
2023-03-26T21:18:42.246Z,5.13
2023-03-26T21:21:28.188Z,5.13
2023-03-26T21:24:03.301Z,5.01
2023-03-26T21:26:41.590Z,4.98
2023-03-26T21:29:11.964Z,4.92
2023-03-26T21:31:39.984Z,4.90
2023-03-26T21:34:09.754Z,4.78
2023-03-26T21:36:40.925Z,4.85
2023-03-26T21:39:11.135Z,4.83
2023-03-26T21:41:45.878Z,4.77
2023-03-26T21:44:14.674Z,4.70
2023-03-26T21:46:46.035Z,4.78
2023-03-26T21:49:16.348Z,4.81
2023-03-26T21:51:46.199Z,4.78
2023-03-26T21:54:28.112Z,4.78
2023-03-26T21:57:25.828Z,4.74
2023-03-26T22:00:16.396Z,4.69
2023-03-26T22:02:55.148Z,4.70
2023-03-26T22:05:49.646Z,4.67
2023-03-26T22:08:27.759Z,4.63
2023-03-26T22:10:55.881Z,4.63
2023-03-26T22:13:23.892Z,4.58
2023-03-26T22:15:51.878Z,4.58
2023-03-26T22:18:24.620Z,4.55
2023-03-26T22:20:53.291Z,4.54
2023-03-26T22:23:21.182Z,4.54
2023-03-26T22:25:48.958Z,4.50
2023-03-26T22:28:16.892Z,4.53
2023-03-26T22:30:44.586Z,4.50
2023-03-26T22:33:12.612Z,4.55
2023-03-26T22:35:42.960Z,4.57
2023-03-26T22:38:11.777Z,4.57
2023-03-26T22:40:39.577Z,4.53
2023-03-26T22:43:07.438Z,4.48
2023-03-26T22:45:35.140Z,4.40
2023-03-26T22:48:04.671Z,4.45
2023-03-26T22:50:33.183Z,4.44
2023-03-26T22:53:01.218Z,4.37
2023-03-26T22:55:29.994Z,4.36
2023-03-26T22:57:57.923Z,4.34
2023-03-26T23:00:26.633Z,4.36
2023-03-26T23:02:56.092Z,4.34
2023-03-26T23:05:23.941Z,4.36
2023-03-26T23:07:52.323Z,4.38
2023-03-26T23:10:21.734Z,4.39
2023-03-26T23:12:49.752Z,4.37
2023-03-26T23:15:17.402Z,4.36
2023-03-26T23:17:45.458Z,4.38
2023-03-26T23:20:22.730Z,4.38
2023-03-26T23:22:50.828Z,4.43
2023-03-26T23:25:18.584Z,4.43
2023-03-26T23:27:46.256Z,4.40
2023-03-26T23:30:15.163Z,4.44
2023-03-26T23:32:42.985Z,4.43
2023-03-26T23:35:11.309Z,4.38
2023-03-26T23:37:42.506Z,4.36
2023-03-26T23:40:11.287Z,4.37
2023-03-26T23:42:58.690Z,4.34
2023-03-26T23:45:26.426Z,4.30
2023-03-26T23:47:54.209Z,4.32
2023-03-26T23:50:23.714Z,4.31
2023-03-26T23:52:51.935Z,4.33
2023-03-26T23:55:19.601Z,4.30
2023-03-26T23:57:47.600Z,4.31
